sensor_id;sensor_type;location;lat;lon;timestamp;pressure;altitude;pressure_sealevel;temperature;humidity
19676;BME280;39539;52.202;9.876;2024-01-25T00:02:16;101292.97;;;7.55;100.00
19676;BME280;39539;52.202;9.876;2024-01-25T00:04:41;101300.25;;;7.61;100.00
19676;BME280;39539;52.202;9.876;2024-01-25T00:07:10;101287.66;;;7.63;100.00
19676;BME280;39539;52.202;9.876;2024-01-25T00:09:35;101296.38;;;7.72;100.00
19676;BME280;39539;52.202;9.876;2024-01-25T00:12:00;101306.50;;;7.69;100.00
19676;BME280;39539;52.202;9.876;2024-01-25T00:14:26;101290.97;;;7.65;100.00
19676;BME280;39539;52.202;9.876;2024-01-25T00:16:51;101286.00;;;7.62;100.00
19676;BME280;39539;52.202;9.876;2024-01-25T00:19:17;101288.00;;;7.60;100.00
19676;BME280;39539;52.202;9.876;2024-01-25T00:21:42;101303.19;;;7.67;100.00
19676;BME280;39539;52.202;9.876;2024-01-25T00:24:08;101298.91;;;7.65;100.00
19676;BME280;39539;52.202;9.876;2024-01-25T00:26:34;101300.25;;;7.61;100.00
19676;BME280;39539;52.202;9.876;2024-01-25T00:28:59;101300.91;;;7.55;100.00
19676;BME280;39539;52.202;9.876;2024-01-25T00:31:25;101301.56;;;7.57;100.00
19676;BME280;39539;52.202;9.876;2024-01-25T00:33:51;101305.53;;;7.61;100.00
19676;BME280;39539;52.202;9.876;2024-01-25T00:36:16;101290.03;;;7.50;100.00
19676;BME280;39539;52.202;9.876;2024-01-25T00:38:42;101307.53;;;7.59;100.00
19676;BME280;39539;52.202;9.876;2024-01-25T00:41:08;101315.78;;;7.64;100.00
19676;BME280;39539;52.202;9.876;2024-01-25T00:43:35;101310.31;;;7.58;100.00
19676;BME280;39539;52.202;9.876;2024-01-25T00:46:01;101305.22;;;7.56;100.00
19676;BME280;39539;52.202;9.876;2024-01-25T00:48:26;101316.50;;;7.50;100.00
19676;BME280;39539;52.202;9.876;2024-01-25T00:50:52;101307.56;;;7.43;100.00
19676;BME280;39539;52.202;9.876;2024-01-25T00:53:18;101327.72;;;7.52;100.00
19676;BME280;39539;52.202;9.876;2024-01-25T00:55:43;101312.88;;;7.43;100.00
19676;BME280;39539;52.202;9.876;2024-01-25T00:58:09;101315.50;;;7.51;100.00
19676;BME280;39539;52.202;9.876;2024-01-25T01:00:35;101319.78;;;7.44;100.00
19676;BME280;39539;52.202;9.876;2024-01-25T01:03:02;101331.69;;;7.48;100.00
19676;BME280;39539;52.202;9.876;2024-01-25T01:05:29;101341.47;;;7.48;100.00
19676;BME280;39539;52.202;9.876;2024-01-25T01:07:55;101347.91;;;7.45;100.00
19676;BME280;39539;52.202;9.876;2024-01-25T01:10:20;101334.69;;;7.45;100.00
19676;BME280;39539;52.202;9.876;2024-01-25T01:12:45;101356.66;;;7.54;100.00
19676;BME280;39539;52.202;9.876;2024-01-25T01:15:11;101342.63;;;7.45;100.00
19676;BME280;39539;52.202;9.876;2024-01-25T01:17:36;101330.09;;;7.39;100.00
19676;BME280;39539;52.202;9.876;2024-01-25T01:20:02;101344.25;;;7.46;100.00
19676;BME280;39539;52.202;9.876;2024-01-25T01:22:27;101322.16;;;7.39;100.00
19676;BME280;39539;52.202;9.876;2024-01-25T01:24:53;101338.97;;;7.46;100.00
19676;BME280;39539;52.202;9.876;2024-01-25T01:27:18;101306.94;;;7.33;100.00
19676;BME280;39539;52.202;9.876;2024-01-25T01:29:45;101323.13;;;7.38;100.00
19676;BME280;39539;52.202;9.876;2024-01-25T01:32:11;101321.81;;;7.34;100.00
19676;BME280;39539;52.202;9.876;2024-01-25T01:34:36;101317.22;;;7.28;100.00
19676;BME280;39539;52.202;9.876;2024-01-25T01:37:01;101325.63;;;7.31;100.00
19676;BME280;39539;52.202;9.876;2024-01-25T01:39:27;101304.34;;;7.25;100.00
19676;BME280;39539;52.202;9.876;2024-01-25T01:41:52;101339.50;;;7.33;100.00
19676;BME280;39539;52.202;9.876;2024-01-25T01:44:19;101334.06;;;7.27;100.00
19676;BME280;39539;52.202;9.876;2024-01-25T01:46:44;101340.00;;;7.37;100.00
19676;BME280;39539;52.202;9.876;2024-01-25T01:49:14;101360.81;;;7.40;100.00
19676;BME280;39539;52.202;9.876;2024-01-25T01:51:40;101369.41;;;7.42;100.00
19676;BME280;39539;52.202;9.876;2024-01-25T01:54:07;101344.97;;;7.24;100.00
19676;BME280;39539;52.202;9.876;2024-01-25T01:56:33;101364.28;;;7.32;100.00
19676;BME280;39539;52.202;9.876;2024-01-25T01:59:08;101333.09;;;7.19;100.00
19676;BME280;39539;52.202;9.876;2024-01-25T02:01:34;101367.13;;;7.31;100.00
19676;BME280;39539;52.202;9.876;2024-01-25T02:03:59;101367.78;;;7.25;100.00
19676;BME280;39539;52.202;9.876;2024-01-25T02:06:25;101381.66;;;7.27;100.00
19676;BME280;39539;52.202;9.876;2024-01-25T02:08:51;101379.69;;;7.29;100.00
19676;BME280;39539;52.202;9.876;2024-01-25T02:11:18;101386.13;;;7.26;100.00
19676;BME280;39539;52.202;9.876;2024-01-25T02:13:44;101392.91;;;7.29;100.00
19676;BME280;39539;52.202;9.876;2024-01-25T02:16:09;101384.47;;;7.25;100.00
19676;BME280;39539;52.202;9.876;2024-01-25T02:18:35;101395.53;;;7.29;100.00
19676;BME280;39539;52.202;9.876;2024-01-25T02:21:00;101389.75;;;7.33;100.00
19676;BME280;39539;52.202;9.876;2024-01-25T02:23:26;101394.53;;;7.30;100.00
19676;BME280;39539;52.202;9.876;2024-01-25T02:25:51;101383.31;;;7.28;100.00
19676;BME280;39539;52.202;9.876;2024-01-25T02:28:16;101382.00;;;7.24;100.00
19676;BME280;39539;52.202;9.876;2024-01-25T02:30:42;101381.31;;;7.30;100.00
19676;BME280;39539;52.202;9.876;2024-01-25T02:33:07;101383.31;;;7.28;100.00
19676;BME280;39539;52.202;9.876;2024-01-25T02:35:32;101390.75;;;7.24;100.00
19676;BME280;39539;52.202;9.876;2024-01-25T02:37:58;101398.34;;;7.27;100.00
19676;BME280;39539;52.202;9.876;2024-01-25T02:40:24;101397.19;;;7.30;100.00
19676;BME280;39539;52.202;9.876;2024-01-25T02:42:49;101366.66;;;7.11;100.00
19676;BME280;39539;52.202;9.876;2024-01-25T02:45:14;101406.13;;;7.29;100.00
19676;BME280;39539;52.202;9.876;2024-01-25T02:47:40;101409.09;;;7.26;100.00
19676;BME280;39539;52.202;9.876;2024-01-25T02:50:05;101408.75;;;7.12;100.00
19676;BME280;39539;52.202;9.876;2024-01-25T02:52:31;101416.88;;;7.19;100.00
19676;BME280;39539;52.202;9.876;2024-01-25T02:54:56;101428.44;;;7.26;100.00
19676;BME280;39539;52.202;9.876;2024-01-25T02:57:23;101438.53;;;7.31;100.00
19676;BME280;39539;52.202;9.876;2024-01-25T02:59:48;101420.97;;;7.30;100.00
19676;BME280;39539;52.202;9.876;2024-01-25T03:02:14;101400.16;;;7.18;100.00
19676;BME280;39539;52.202;9.876;2024-01-25T03:04:39;101391.94;;;7.13;100.00
19676;BME280;39539;52.202;9.876;2024-01-25T03:07:04;101433.88;;;7.33;100.00
19676;BME280;39539;52.202;9.876;2024-01-25T03:09:31;101415.69;;;7.30;100.00
19676;BME280;39539;52.202;9.876;2024-01-25T03:11:56;101422.47;;;7.32;100.00
19676;BME280;39539;52.202;9.876;2024-01-25T03:14:21;101413.72;;;7.24;100.00
19676;BME280;39539;52.202;9.876;2024-01-25T03:16:47;101403.81;;;7.17;100.00
19676;BME280;39539;52.202;9.876;2024-01-25T03:19:12;101426.13;;;7.23;100.00
19676;BME280;39539;52.202;9.876;2024-01-25T03:21:37;101420.16;;;7.21;100.00
19676;BME280;39539;52.202;9.876;2024-01-25T03:24:03;101405.44;;;7.18;100.00
19676;BME280;39539;52.202;9.876;2024-01-25T03:26:28;101398.69;;;7.16;100.00
19676;BME280;39539;52.202;9.876;2024-01-25T03:28:54;101391.75;;;7.15;100.00
19676;BME280;39539;52.202;9.876;2024-01-25T03:31:19;101374.06;;;6.99;100.00
19676;BME280;39539;52.202;9.876;2024-01-25T03:33:45;101386.66;;;7.05;100.00
19676;BME280;39539;52.202;9.876;2024-01-25T03:36:13;101406.47;;;7.09;100.00
19676;BME280;39539;52.202;9.876;2024-01-25T03:38:38;101401.69;;;6.96;100.00
19676;BME280;39539;52.202;9.876;2024-01-25T03:41:04;101408.44;;;6.91;100.00
19676;BME280;39539;52.202;9.876;2024-01-25T03:43:29;101369.59;;;6.67;100.00
19676;BME280;39539;52.202;9.876;2024-01-25T03:45:54;101390.91;;;6.73;100.00
19676;BME280;39539;52.202;9.876;2024-01-25T03:48:19;101402.47;;;6.64;100.00
19676;BME280;39539;52.202;9.876;2024-01-25T03:50:45;101407.41;;;6.59;100.00
19676;BME280;39539;52.202;9.876;2024-01-25T03:53:10;101415.47;;;6.49;100.00
19676;BME280;39539;52.202;9.876;2024-01-25T03:55:36;101410.97;;;6.34;100.00
19676;BME280;39539;52.202;9.876;2024-01-25T03:58:01;101426.34;;;6.38;100.00
19676;BME280;39539;52.202;9.876;2024-01-25T04:00:26;101407.63;;;6.15;100.00
19676;BME280;39539;52.202;9.876;2024-01-25T04:02:52;101415.03;;;6.20;100.00
19676;BME280;39539;52.202;9.876;2024-01-25T04:05:18;101429.72;;;6.22;100.00
19676;BME280;39539;52.202;9.876;2024-01-25T04:07:43;101418.81;;;6.09;100.00
19676;BME280;39539;52.202;9.876;2024-01-25T04:10:08;101441.94;;;6.15;100.00
19676;BME280;39539;52.202;9.876;2024-01-25T04:12:34;101443.44;;;6.18;100.00
19676;BME280;39539;52.202;9.876;2024-01-25T04:14:59;101455.13;;;6.15;100.00
19676;BME280;39539;52.202;9.876;2024-01-25T04:17:24;101465.41;;;6.26;100.00
19676;BME280;39539;52.202;9.876;2024-01-25T04:19:50;101467.41;;;6.33;100.00
19676;BME280;39539;52.202;9.876;2024-01-25T04:22:15;101466.94;;;6.45;100.00
19676;BME280;39539;52.202;9.876;2024-01-25T04:24:41;101473.75;;;6.56;100.00
19676;BME280;39539;52.202;9.876;2024-01-25T04:27:06;101462.22;;;6.57;100.00
19676;BME280;39539;52.202;9.876;2024-01-25T04:29:33;101481.91;;;6.71;100.00
19676;BME280;39539;52.202;9.876;2024-01-25T04:31:58;101477.78;;;6.68;100.00
19676;BME280;39539;52.202;9.876;2024-01-25T04:34:24;101499.53;;;6.70;100.00
19676;BME280;39539;52.202;9.876;2024-01-25T04:36:49;101511.75;;;6.63;100.00
19676;BME280;39539;52.202;9.876;2024-01-25T04:39:14;101508.44;;;6.61;100.00
19676;BME280;39539;52.202;9.876;2024-01-25T04:41:39;101512.44;;;6.73;100.00
19676;BME280;39539;52.202;9.876;2024-01-25T04:44:05;101511.13;;;6.69;100.00
19676;BME280;39539;52.202;9.876;2024-01-25T04:46:30;101505.50;;;6.72;100.00
19676;BME280;39539;52.202;9.876;2024-01-25T04:49:03;101479.88;;;6.65;100.00
19676;BME280;39539;52.202;9.876;2024-01-25T04:51:28;101504.03;;;6.78;100.00
19676;BME280;39539;52.202;9.876;2024-01-25T04:53:53;101513.78;;;6.78;100.00
19676;BME280;39539;52.202;9.876;2024-01-25T04:56:19;101507.81;;;6.75;100.00
19676;BME280;39539;52.202;9.876;2024-01-25T04:58:44;101511.78;;;6.71;100.00
19676;BME280;39539;52.202;9.876;2024-01-25T05:01:09;101523.03;;;6.82;100.00
19676;BME280;39539;52.202;9.876;2024-01-25T05:03:35;101539.75;;;6.82;100.00
19676;BME280;39539;52.202;9.876;2024-01-25T05:06:00;101542.66;;;6.79;100.00
19676;BME280;39539;52.202;9.876;2024-01-25T05:08:26;101550.28;;;6.74;100.00
19676;BME280;39539;52.202;9.876;2024-01-25T05:10:51;101553.91;;;6.81;100.00
19676;BME280;39539;52.202;9.876;2024-01-25T05:13:18;101551.09;;;6.74;100.00
19676;BME280;39539;52.202;9.876;2024-01-25T05:15:43;101565.97;;;6.84;100.00
19676;BME280;39539;52.202;9.876;2024-01-25T05:18:09;101576.22;;;6.87;100.00
19676;BME280;39539;52.202;9.876;2024-01-25T05:20:34;101583.47;;;6.85;100.00
19676;BME280;39539;52.202;9.876;2024-01-25T05:23:02;101577.03;;;6.79;100.00
19676;BME280;39539;52.202;9.876;2024-01-25T05:25:28;101575.22;;;6.80;100.00
19676;BME280;39539;52.202;9.876;2024-01-25T05:27:54;101576.88;;;6.81;100.00
19676;BME280;39539;52.202;9.876;2024-01-25T05:30:20;101583.16;;;6.80;100.00
19676;BME280;39539;52.202;9.876;2024-01-25T05:32:46;101577.84;;;6.71;100.00
19676;BME280;39539;52.202;9.876;2024-01-25T05:35:13;101590.22;;;6.79;100.00
19676;BME280;39539;52.202;9.876;2024-01-25T05:37:39;101599.00;;;6.80;100.00
19676;BME280;39539;52.202;9.876;2024-01-25T05:40:04;101598.69;;;6.83;100.00
19676;BME280;39539;52.202;9.876;2024-01-25T05:42:30;101599.97;;;6.79;100.00
19676;BME280;39539;52.202;9.876;2024-01-25T05:44:55;101603.28;;;6.81;100.00
19676;BME280;39539;52.202;9.876;2024-01-25T05:47:20;101586.59;;;6.72;100.00
19676;BME280;39539;52.202;9.876;2024-01-25T05:49:46;101585.59;;;6.73;100.00
19676;BME280;39539;52.202;9.876;2024-01-25T05:52:12;101600.28;;;6.75;100.00
19676;BME280;39539;52.202;9.876;2024-01-25T05:54:37;101582.41;;;6.61;100.00
19676;BME280;39539;52.202;9.876;2024-01-25T05:57:03;101579.41;;;6.56;100.00
19676;BME280;39539;52.202;9.876;2024-01-25T05:59:29;101586.91;;;6.69;100.00
19676;BME280;39539;52.202;9.876;2024-01-25T06:01:54;101596.59;;;6.60;100.00
19676;BME280;39539;52.202;9.876;2024-01-25T06:04:20;101606.22;;;6.69;100.00
19676;BME280;39539;52.202;9.876;2024-01-25T06:06:45;101615.13;;;6.68;100.00
19676;BME280;39539;52.202;9.876;2024-01-25T06:09:10;101611.97;;;6.65;100.00
19676;BME280;39539;52.202;9.876;2024-01-25T06:11:36;101599.91;;;6.62;100.00
19676;BME280;39539;52.202;9.876;2024-01-25T06:14:04;101599.22;;;6.52;100.00
19676;BME280;39539;52.202;9.876;2024-01-25T06:16:30;101604.63;;;6.50;100.00
19676;BME280;39539;52.202;9.876;2024-01-25T06:18:55;101604.25;;;6.45;100.00
19676;BME280;39539;52.202;9.876;2024-01-25T06:21:20;101602.75;;;6.35;100.00
19676;BME280;39539;52.202;9.876;2024-01-25T06:23:46;101592.88;;;6.19;100.00
19676;BME280;39539;52.202;9.876;2024-01-25T06:26:11;101579.50;;;6.12;100.00
19676;BME280;39539;52.202;9.876;2024-01-25T06:28:36;101614.84;;;6.19;100.00
19676;BME280;39539;52.202;9.876;2024-01-25T06:31:02;101597.22;;;6.02;100.00
19676;BME280;39539;52.202;9.876;2024-01-25T06:33:28;101623.63;;;6.02;100.00
19676;BME280;39539;52.202;9.876;2024-01-25T06:35:54;101620.78;;;5.95;100.00
19676;BME280;39539;52.202;9.876;2024-01-25T06:38:19;101619.53;;;5.90;100.00
19676;BME280;39539;52.202;9.876;2024-01-25T06:40:45;101609.13;;;5.88;100.00
19676;BME280;39539;52.202;9.876;2024-01-25T06:43:10;101622.59;;;5.95;100.00
19676;BME280;39539;52.202;9.876;2024-01-25T06:45:37;101620.22;;;5.92;100.00
19676;BME280;39539;52.202;9.876;2024-01-25T06:48:02;101640.06;;;5.96;100.00
19676;BME280;39539;52.202;9.876;2024-01-25T06:50:28;101654.59;;;6.00;100.00
19676;BME280;39539;52.202;9.876;2024-01-25T06:52:53;101641.88;;;5.95;100.00
19676;BME280;39539;52.202;9.876;2024-01-25T06:55:20;101650.31;;;5.99;100.00
19676;BME280;39539;52.202;9.876;2024-01-25T06:57:45;101648.88;;;6.04;100.00
19676;BME280;39539;52.202;9.876;2024-01-25T07:00:11;101679.31;;;6.17;100.00
19676;BME280;39539;52.202;9.876;2024-01-25T07:02:38;101674.91;;;6.17;100.00
19676;BME280;39539;52.202;9.876;2024-01-25T07:05:04;101657.25;;;6.00;100.00
19676;BME280;39539;52.202;9.876;2024-01-25T07:07:29;101682.44;;;6.12;100.00
19676;BME280;39539;52.202;9.876;2024-01-25T07:09:57;101688.16;;;6.07;100.00
19676;BME280;39539;52.202;9.876;2024-01-25T07:12:22;101686.28;;;6.00;100.00
19676;BME280;39539;52.202;9.876;2024-01-25T07:14:48;101689.91;;;5.99;100.00
19676;BME280;39539;52.202;9.876;2024-01-25T07:17:13;101690.59;;;6.01;100.00
19676;BME280;39539;52.202;9.876;2024-01-25T07:19:39;101684.25;;;5.94;100.00
19676;BME280;39539;52.202;9.876;2024-01-25T07:22:04;101694.66;;;5.95;100.00
19676;BME280;39539;52.202;9.876;2024-01-25T07:24:30;101690.41;;;5.84;100.00
19676;BME280;39539;52.202;9.876;2024-01-25T07:26:55;101689.88;;;5.81;100.00
19676;BME280;39539;52.202;9.876;2024-01-25T07:29:20;101703.97;;;5.90;100.00
19676;BME280;39539;52.202;9.876;2024-01-25T07:31:46;101693.72;;;5.87;100.00
19676;BME280;39539;52.202;9.876;2024-01-25T07:34:12;101700.66;;;5.88;100.00
19676;BME280;39539;52.202;9.876;2024-01-25T07:36:37;101695.38;;;5.88;100.00
19676;BME280;39539;52.202;9.876;2024-01-25T07:39:03;101726.94;;;6.07;100.00
19676;BME280;39539;52.202;9.876;2024-01-25T07:41:28;101728.28;;;6.11;100.00
19676;BME280;39539;52.202;9.876;2024-01-25T07:43:54;101720.44;;;6.19;100.00
19676;BME280;39539;52.202;9.876;2024-01-25T07:46:21;101718.69;;;6.28;100.00
19676;BME280;39539;52.202;9.876;2024-01-25T07:48:47;101712.28;;;6.30;100.00
19676;BME280;39539;52.202;9.876;2024-01-25T07:51:15;101727.22;;;6.40;100.00
19676;BME280;39539;52.202;9.876;2024-01-25T07:53:41;101724.91;;;6.45;100.00
19676;BME280;39539;52.202;9.876;2024-01-25T07:56:10;101705.03;;;6.33;100.00
19676;BME280;39539;52.202;9.876;2024-01-25T07:58:36;101720.47;;;6.45;100.00
19676;BME280;39539;52.202;9.876;2024-01-25T08:01:05;101729.91;;;6.48;100.00
19676;BME280;39539;52.202;9.876;2024-01-25T08:03:34;101743.59;;;6.69;100.00
19676;BME280;39539;52.202;9.876;2024-01-25T08:06:00;101732.72;;;6.72;100.00
19676;BME280;39539;52.202;9.876;2024-01-25T08:08:26;101740.69;;;6.81;100.00
19676;BME280;39539;52.202;9.876;2024-01-25T08:10:52;101744.53;;;6.86;100.00
19676;BME280;39539;52.202;9.876;2024-01-25T08:13:17;101743.22;;;6.82;100.00
19676;BME280;39539;52.202;9.876;2024-01-25T08:15:42;101740.44;;;6.92;100.00
19676;BME280;39539;52.202;9.876;2024-01-25T08:18:08;101739.97;;;6.96;100.00
19676;BME280;39539;52.202;9.876;2024-01-25T08:20:36;101740.59;;;7.16;100.00
19676;BME280;39539;52.202;9.876;2024-01-25T08:23:01;101718.03;;;7.04;100.00
19676;BME280;39539;52.202;9.876;2024-01-25T08:25:27;101731.63;;;7.09;100.00
19676;BME280;39539;52.202;9.876;2024-01-25T08:27:52;101742.88;;;7.11;100.00
19676;BME280;39539;52.202;9.876;2024-01-25T08:30:18;101741.50;;;7.07;100.00
19676;BME280;39539;52.202;9.876;2024-01-25T08:32:43;101754.41;;;7.10;100.00
19676;BME280;39539;52.202;9.876;2024-01-25T08:35:09;101756.63;;;7.23;100.00
19676;BME280;39539;52.202;9.876;2024-01-25T08:37:35;101743.56;;;7.22;100.00
19676;BME280;39539;52.202;9.876;2024-01-25T08:40:03;101754.81;;;7.24;100.00
19676;BME280;39539;52.202;9.876;2024-01-25T08:42:31;101757.16;;;7.27;100.00
19676;BME280;39539;52.202;9.876;2024-01-25T08:44:57;101763.13;;;7.29;100.00
19676;BME280;39539;52.202;9.876;2024-01-25T08:47:22;101764.72;;;7.22;100.00
19676;BME280;39539;52.202;9.876;2024-01-25T08:49:47;101760.88;;;7.16;100.00
19676;BME280;39539;52.202;9.876;2024-01-25T08:52:13;101772.00;;;7.19;100.00
19676;BME280;39539;52.202;9.876;2024-01-25T08:54:40;101763.69;;;7.14;100.00
19676;BME280;39539;52.202;9.876;2024-01-25T08:57:07;101775.59;;;7.18;100.00
19676;BME280;39539;52.202;9.876;2024-01-25T08:59:34;101777.34;;;7.36;100.00
19676;BME280;39539;52.202;9.876;2024-01-25T09:02:02;101772.91;;;7.36;100.00
19676;BME280;39539;52.202;9.876;2024-01-25T09:04:27;101770.91;;;7.38;100.00
19676;BME280;39539;52.202;9.876;2024-01-25T09:06:52;101783.34;;;7.46;100.00
19676;BME280;39539;52.202;9.876;2024-01-25T09:09:19;101791.97;;;7.48;100.00
19676;BME280;39539;52.202;9.876;2024-01-25T09:11:45;101798.59;;;7.52;100.00
19676;BME280;39539;52.202;9.876;2024-01-25T09:14:10;101804.69;;;7.53;100.00
19676;BME280;39539;52.202;9.876;2024-01-25T09:16:36;101789.38;;;7.56;100.00
19676;BME280;39539;52.202;9.876;2024-01-25T09:19:04;101803.44;;;7.65;100.00
19676;BME280;39539;52.202;9.876;2024-01-25T09:21:30;101800.13;;;7.63;100.00
19676;BME280;39539;52.202;9.876;2024-01-25T09:23:56;101806.13;;;7.73;100.00
19676;BME280;39539;52.202;9.876;2024-01-25T09:26:21;101798.66;;;7.69;100.00
19676;BME280;39539;52.202;9.876;2024-01-25T09:28:46;101792.38;;;7.61;100.00
19676;BME280;39539;52.202;9.876;2024-01-25T09:31:12;101802.91;;;7.53;100.00
19676;BME280;39539;52.202;9.876;2024-01-25T09:33:37;101794.66;;;7.56;100.00
19676;BME280;39539;52.202;9.876;2024-01-25T09:36:03;101793.28;;;7.52;100.00
19676;BME280;39539;52.202;9.876;2024-01-25T09:38:29;101800.00;;;7.73;100.00
19676;BME280;39539;52.202;9.876;2024-01-25T09:40:54;101809.38;;;7.59;100.00
19676;BME280;39539;52.202;9.876;2024-01-25T09:43:21;101817.88;;;7.71;100.00
19676;BME280;39539;52.202;9.876;2024-01-25T09:45:49;101822.19;;;7.80;100.00
19676;BME280;39539;52.202;9.876;2024-01-25T09:48:18;101818.28;;;8.00;100.00
19676;BME280;39539;52.202;9.876;2024-01-25T09:50:48;101813.03;;;8.17;100.00
19676;BME280;39539;52.202;9.876;2024-01-25T09:53:21;101818.84;;;8.37;98.81
19676;BME280;39539;52.202;9.876;2024-01-25T09:55:56;101819.72;;;8.53;98.50
19676;BME280;39539;52.202;9.876;2024-01-25T09:58:25;101806.31;;;8.71;97.46
19676;BME280;39539;52.202;9.876;2024-01-25T10:00:53;101819.22;;;8.99;95.60
19676;BME280;39539;52.202;9.876;2024-01-25T10:03:19;101826.47;;;9.13;95.02
19676;BME280;39539;52.202;9.876;2024-01-25T10:05:44;101830.28;;;9.19;93.81
19676;BME280;39539;52.202;9.876;2024-01-25T10:08:12;101814.91;;;9.06;93.34
19676;BME280;39539;52.202;9.876;2024-01-25T10:10:38;101821.84;;;9.07;94.15
19676;BME280;39539;52.202;9.876;2024-01-25T10:13:04;101815.72;;;9.15;93.62
19676;BME280;39539;52.202;9.876;2024-01-25T10:15:30;101815.63;;;9.39;93.70
19676;BME280;39539;52.202;9.876;2024-01-25T10:17:56;101813.91;;;9.63;93.01
19676;BME280;39539;52.202;9.876;2024-01-25T10:20:21;101820.22;;;9.62;91.32
19676;BME280;39539;52.202;9.876;2024-01-25T10:22:49;101820.03;;;9.72;90.84
19676;BME280;39539;52.202;9.876;2024-01-25T10:25:15;101811.25;;;9.63;91.18
19676;BME280;39539;52.202;9.876;2024-01-25T10:27:40;101812.94;;;9.56;90.27
19676;BME280;39539;52.202;9.876;2024-01-25T10:30:07;101806.03;;;9.38;91.62
19676;BME280;39539;52.202;9.876;2024-01-25T10:32:33;101803.41;;;9.30;91.68
19676;BME280;39539;52.202;9.876;2024-01-25T10:34:59;101802.03;;;9.42;91.49
19676;BME280;39539;52.202;9.876;2024-01-25T10:37:27;101792.69;;;9.63;91.15
19676;BME280;39539;52.202;9.876;2024-01-25T10:39:55;101802.91;;;9.74;91.74
19676;BME280;39539;52.202;9.876;2024-01-25T10:42:21;101808.28;;;9.97;90.88
19676;BME280;39539;52.202;9.876;2024-01-25T10:44:46;101796.47;;;10.00;90.05
19676;BME280;39539;52.202;9.876;2024-01-25T10:47:12;101785.94;;;9.83;88.11
19676;BME280;39539;52.202;9.876;2024-01-25T10:49:38;101782.56;;;9.58;89.90
19676;BME280;39539;52.202;9.876;2024-01-25T10:52:10;101789.44;;;9.36;92.14
19676;BME280;39539;52.202;9.876;2024-01-25T10:54:36;101790.22;;;9.53;92.21
19676;BME280;39539;52.202;9.876;2024-01-25T10:57:06;101793.28;;;9.73;91.49
19676;BME280;39539;52.202;9.876;2024-01-25T10:59:32;101796.38;;;9.85;90.34
19676;BME280;39539;52.202;9.876;2024-01-25T11:01:57;101791.53;;;9.97;90.49
19676;BME280;39539;52.202;9.876;2024-01-25T11:04:23;101789.72;;;9.89;88.48
19676;BME280;39539;52.202;9.876;2024-01-25T11:06:48;101781.84;;;9.73;89.20
19676;BME280;39539;52.202;9.876;2024-01-25T11:09:21;101787.00;;;9.74;90.27
19676;BME280;39539;52.202;9.876;2024-01-25T11:11:47;101769.03;;;9.76;90.66
19676;BME280;39539;52.202;9.876;2024-01-25T11:14:16;101779.31;;;9.79;90.08
19676;BME280;39539;52.202;9.876;2024-01-25T11:16:43;101776.56;;;9.96;89.67
19676;BME280;39539;52.202;9.876;2024-01-25T11:19:19;101781.47;;;10.07;89.10
19676;BME280;39539;52.202;9.876;2024-01-25T11:21:52;101777.13;;;10.14;88.24
19676;BME280;39539;52.202;9.876;2024-01-25T11:24:23;101771.31;;;10.42;87.25
19676;BME280;39539;52.202;9.876;2024-01-25T11:26:50;101766.41;;;10.30;87.21
19676;BME280;39539;52.202;9.876;2024-01-25T11:29:16;101769.56;;;10.26;87.95
19676;BME280;39539;52.202;9.876;2024-01-25T11:31:46;101760.31;;;9.90;87.18
19676;BME280;39539;52.202;9.876;2024-01-25T11:34:13;101766.69;;;9.81;89.73
19676;BME280;39539;52.202;9.876;2024-01-25T11:36:39;101758.81;;;9.65;89.70
19676;BME280;39539;52.202;9.876;2024-01-25T11:39:05;101764.81;;;9.59;91.05
19676;BME280;39539;52.202;9.876;2024-01-25T11:41:32;101771.13;;;9.58;90.47
19676;BME280;39539;52.202;9.876;2024-01-25T11:43:57;101768.16;;;9.53;91.79
19676;BME280;39539;52.202;9.876;2024-01-25T11:46:23;101770.25;;;9.34;92.09
19676;BME280;39539;52.202;9.876;2024-01-25T11:48:48;101754.03;;;9.21;94.05
19676;BME280;39539;52.202;9.876;2024-01-25T11:51:14;101772.22;;;9.32;93.66
19676;BME280;39539;52.202;9.876;2024-01-25T11:53:40;101761.78;;;9.31;92.87
19676;BME280;39539;52.202;9.876;2024-01-25T11:56:08;101763.47;;;9.24;94.71
19676;BME280;39539;52.202;9.876;2024-01-25T11:58:35;101768.44;;;9.27;93.75
19676;BME280;39539;52.202;9.876;2024-01-25T12:01:02;101772.38;;;9.31;93.19
19676;BME280;39539;52.202;9.876;2024-01-25T12:03:32;101761.91;;;9.46;93.86
19676;BME280;39539;52.202;9.876;2024-01-25T12:05:58;101761.59;;;9.40;93.13
19676;BME280;39539;52.202;9.876;2024-01-25T12:08:24;101763.56;;;9.38;93.44
19676;BME280;39539;52.202;9.876;2024-01-25T12:10:49;101745.56;;;9.26;94.09
19676;BME280;39539;52.202;9.876;2024-01-25T12:13:16;101748.75;;;9.13;93.90
19676;BME280;39539;52.202;9.876;2024-01-25T12:15:42;101744.97;;;8.99;93.37
19676;BME280;39539;52.202;9.876;2024-01-25T12:18:07;101741.38;;;8.84;93.84
19676;BME280;39539;52.202;9.876;2024-01-25T12:20:35;101725.28;;;8.77;96.30
19676;BME280;39539;52.202;9.876;2024-01-25T12:23:01;101705.94;;;8.52;95.57
19676;BME280;39539;52.202;9.876;2024-01-25T12:25:27;101720.38;;;8.49;96.10
19676;BME280;39539;52.202;9.876;2024-01-25T12:27:53;101721.00;;;8.51;96.56
19676;BME280;39539;52.202;9.876;2024-01-25T12:30:19;101704.63;;;8.40;96.37
19676;BME280;39539;52.202;9.876;2024-01-25T12:32:44;101712.59;;;8.48;96.42
19676;BME280;39539;52.202;9.876;2024-01-25T12:35:10;101728.00;;;8.61;96.05
19676;BME280;39539;52.202;9.876;2024-01-25T12:37:35;101726.31;;;8.68;95.61
19676;BME280;39539;52.202;9.876;2024-01-25T12:40:00;101727.31;;;8.75;97.47
19676;BME280;39539;52.202;9.876;2024-01-25T12:42:26;101728.28;;;8.66;96.50
19676;BME280;39539;52.202;9.876;2024-01-25T12:44:54;101727.66;;;8.64;94.89
19676;BME280;39539;52.202;9.876;2024-01-25T12:47:22;101717.53;;;8.43;95.16